Hub


Voltar

 INFORMAÇÕES METEOROLÓGICAS

METAR FOR SBAT


ADDS - METARS form results

(2343 UTC 19 August 2019)
Data provider http://aviationweather.gov/metar/data/
 
Forecast for: SBAT (ALTA FLORESTA , BR)
Text: TAF SBAT 191615Z 1918/2006 12005KT 9999 SCT040TX37/1919Z TN27/1923Z
Forecast period: 1800 to 2200 UTC 19 August 2019
Forecast type: FROM: standard forecast or significant change
Winds: from the ESE (120 degrees) at 6 MPH (5 knots; 2.6 m/s)
Visibility: 6 or more miles 10+ km)
Ceiling: unknown
Clouds: missing
Weather: no significant weather forecast for this period
Text: BECMG 1922/1924 19002KT CAVOK RMK PHN
Forecast period: 2200 UTC 19 August 2019 to 0600 UTC 20 August 2019
Forecast type: BECOMING: Conditions expected to become as follows by 0000 UTC 20 August 2019
Winds: from the S (190 degrees) at 2 MPH (2 knots; 1.0 m/s)
Visibility: 6 or more miles 10+ km)
Ceiling: unknown
Clouds: missing
Weather: NSW  (no significant weather)


 MAPA DO AEROPORTO


 INFORMAÇÕES DA PISTA

Pista 3 Tamanho da pista 8202 ft Largura da pista 98 ft
Elevação da pista 0 ft Ranhura da pista 0 ft Proa da pista 0
Pista 21 Tamanho da pista 8202 ft Largura da pista 98 ft
Elevação da pista 0 ft Ranhura da pista 0 ft Proa da pista 0

 FREQUÊNCIAS DO AEROPORTO

Tipo RDO Nome RDO Frequência 126.6 MHZ

 AUXÍLIOS DE NAVEGAÇÃO PRÓXIMOS AO AEROPORTO

Tipo VOR-DME Nome Alta Floresta Frequência 113400 KHZ
Tipo NDB Nome Alta Floresta Frequência 245 KHZ